Time;durP1;ratioP1;P1;durP2;ratioP2;P2;SDS_P1;SDS_P2;PMS_P1;PMS_P2;Temp;Humidity;BMP_temperature;BMP_pressure;BME280_temperature;BME280_humidity;BME280_pressure;Samples;Min_cycle;Max_cycle;Signal;HPM_P1;HPM_P2
2022/08/13 00:01:26;;;;;;;0.35;0.35;;;17.20;93.70;;;;;;5031282;28;20435;-62
2022/08/13 00:04:01;;;;;;;0.30;0.30;;;17.00;93.80;;;;;;5036282;28;20928;-62
2022/08/13 00:09:21;;;;;;;0.50;0.40;;;17.00;93.90;;;;;;5024798;28;20434;-62
2022/08/13 00:14:47;;;;;;;0.40;0.40;;;16.80;94.30;;;;;;5032453;28;20507;-61
2022/08/13 00:17:19;;;;;;;0.30;0.30;;;16.70;94.20;;;;;;5034995;28;20437;-61
2022/08/13 00:19:51;;;;;;;0.45;0.45;;;16.50;94.30;;;;;;5026942;28;20430;-61
2022/08/13 00:22:23;;;;;;;0.50;0.50;;;16.40;94.50;;;;;;5035443;28;20424;-61
2022/08/13 00:25:01;;;;;;;0.43;0.43;;;16.30;94.70;;;;;;5031184;28;20825;-61
2022/08/13 00:27:40;;;;;;;0.37;0.37;;;16.20;94.90;;;;;;5029894;28;20425;-61
2022/08/13 00:30:31;;;;;;;0.40;0.40;;;16.00;95.10;;;;;;5034714;28;20419;-61
2022/08/13 00:33:12;;;;;;;0.50;0.50;;;16.00;95.30;;;;;;5028993;28;20433;-61
2022/08/13 00:35:41;;;;;;;0.32;0.32;;;16.00;95.40;;;;;;5036898;28;20920;-61
2022/08/13 00:38:13;;;;;;;1.10;0.40;;;16.10;95.50;;;;;;5048162;28;20434;-61
2022/08/13 00:40:48;;;;;;;0.35;0.35;;;16.20;95.50;;;;;;5021866;28;20430;-61
2022/08/13 00:43:21;;;;;;;0.40;0.40;;;16.20;95.40;;;;;;5024364;28;20485;-62
2022/08/13 00:45:48;;;;;;;0.38;0.38;;;16.30;95.40;;;;;;5040729;28;20446;-62
2022/08/13 00:51:01;;;;;;;0.38;0.38;;;16.30;95.50;;;;;;5024658;28;20450;-62
2022/08/13 00:53:30;;;;;;;0.40;0.40;;;16.40;95.40;;;;;;5023580;28;20527;-61
2022/08/13 00:56:14;;;;;;;1.40;0.50;;;16.40;95.40;;;;;;5031296;28;20486;-61
2022/08/13 00:58:42;;;;;;;0.38;0.38;;;16.40;95.30;;;;;;5026917;28;20462;-61
2022/08/13 01:01:11;;;;;;;0.47;0.47;;;16.40;95.20;;;;;;5028259;28;20851;-62
2022/08/13 01:03:54;;;;;;;0.30;0.30;;;16.50;95.30;;;;;;5030377;28;20432;-61
2022/08/13 01:06:37;;;;;;;0.47;0.47;;;16.60;95.20;;;;;;5040227;28;20834;-61
2022/08/13 01:09:08;;;;;;;0.40;0.40;;;16.60;95.20;;;;;;5050712;28;20468;-61
2022/08/13 01:11:58;;;;;;;0.60;0.60;;;16.60;95.20;;;;;;5033164;28;20429;-61
2022/08/13 01:14:32;;;;;;;0.50;0.50;;;16.50;95.30;;;;;;5027680;28;20441;-62
2022/08/13 01:17:02;;;;;;;0.38;0.38;;;16.50;95.40;;;;;;5030650;28;20513;-61
2022/08/13 01:19:34;;;;;;;0.40;0.38;;;16.50;95.50;;;;;;5027278;28;21129;-61
2022/08/13 01:22:21;;;;;;;0.30;0.30;;;16.60;95.80;;;;;;5027243;28;20434;-61
2022/08/13 01:25:05;;;;;;;0.40;0.40;;;16.60;95.40;;;;;;5035667;28;20430;-61
2022/08/13 01:27:36;;;;;;;0.50;0.50;;;16.70;95.30;;;;;;5045624;28;20479;-61
2022/08/13 01:30:06;;;;;;;0.45;0.45;;;16.70;95.30;;;;;;5026249;28;20490;-61
2022/08/13 01:32:39;;;;;;;0.40;0.40;;;16.70;95.20;;;;;;5026868;28;20429;-61
2022/08/13 01:35:23;;;;;;;0.30;0.30;;;16.70;95.20;;;;;;5038554;28;20435;-61
2022/08/13 01:37:54;;;;;;;0.30;0.30;;;16.70;95.20;;;;;;5040003;28;20462;-61
2022/08/13 01:40:25;;;;;;;0.30;0.30;;;16.60;95.30;;;;;;5036227;28;20908;-61
2022/08/13 01:42:57;;;;;;;0.43;0.43;;;16.50;95.40;;;;;;5031357;28;20433;-61
2022/08/13 01:45:26;;;;;;;0.40;0.40;;;16.50;95.60;;;;;;5038808;28;20465;-61
2022/08/13 01:50:47;;;;;;;0.40;0.40;;;16.20;95.70;;;;;;5020833;28;20820;-62
2022/08/13 01:53:18;;;;;;;0.30;0.30;;;16.20;95.80;;;;;;5043509;28;21084;-62
2022/08/13 01:55:54;;;;;;;0.60;0.60;;;16.10;95.90;;;;;;5029650;28;20442;-62
2022/08/13 01:58:41;;;;;;;0.30;0.30;;;16.10;96.20;;;;;;5022020;28;20429;-62
2022/08/13 02:01:28;;;;;;;0.93;0.40;;;16.00;96.20;;;;;;5031071;28;20510;-62
2022/08/13 02:04:10;;;;;;;0.30;0.30;;;16.00;96.30;;;;;;5018296;28;20431;-62
2022/08/13 02:06:42;;;;;;;0.40;0.40;;;16.00;96.40;;;;;;5040773;28;21006;-62
2022/08/13 02:09:09;;;;;;;0.50;0.50;;;16.00;96.40;;;;;;5048818;28;20875;-62
2022/08/13 02:11:56;;;;;;;0.50;0.30;;;15.90;96.50;;;;;;5032161;28;20431;-62
2022/08/13 02:14:28;;;;;;;0.30;0.30;;;15.80;96.70;;;;;;5033125;28;20440;-62
2022/08/13 02:16:57;;;;;;;0.23;0.23;;;;;;;;;;5018452;28;20435;-62
2022/08/13 02:19:24;;;;;;;0.30;0.30;;;15.80;96.90;;;;;;5028424;28;20979;-62
2022/08/13 02:21:58;;;;;;;0.40;0.40;;;15.80;96.90;;;;;;5035683;28;20737;-62
2022/08/13 02:24:35;;;;;;;0.60;0.60;;;15.80;96.90;;;;;;5032545;28;20462;-62
2022/08/13 02:27:04;;;;;;;0.60;0.60;;;15.80;96.80;;;;;;5030835;28;20491;-62
2022/08/13 02:29:33;;;;;;;0.20;0.20;;;15.80;96.80;;;;;;5034163;28;20458;-60
2022/08/13 02:32:01;;;;;;;0.40;0.40;;;15.90;96.80;;;;;;5036298;28;20959;-61
2022/08/13 02:34:46;;;;;;;0.30;0.30;;;15.90;96.70;;;;;;5036812;28;20514;-61
2022/08/13 02:37:15;;;;;;;0.40;0.40;;;16.00;96.70;;;;;;5025258;28;20436;-61
2022/08/13 02:40:04;;;;;;;0.60;0.60;;;16.00;96.70;;;;;;5025747;28;21110;-61
2022/08/13 02:42:33;;;;;;;0.30;0.30;;;15.90;96.80;;;;;;5044694;28;20455;-61
2022/08/13 02:45:03;;;;;;;0.30;0.30;;;15.80;96.90;;;;;;5030080;28;20435;-61
2022/08/13 02:47:36;;;;;;;0.50;0.50;;;15.70;97.00;;;;;;5034839;28;20472;-61
2022/08/13 02:50:11;;;;;;;0.40;0.40;;;15.60;97.20;;;;;;5026346;28;20460;-61
2022/08/13 02:52:41;;;;;;;0.50;0.50;;;15.60;97.30;;;;;;5034555;28;20427;-61
2022/08/13 02:55:29;;;;;;;0.50;0.45;;;15.60;97.40;;;;;;5025674;28;20443;-61
2022/08/13 02:58:04;;;;;;;0.80;0.60;;;15.60;97.30;;;;;;5029023;28;20868;-61
2022/08/13 03:00:34;;;;;;;0.37;0.37;;;15.60;97.50;;;;;;5036024;28;20925;-61
2022/08/13 03:03:04;;;;;;;0.47;0.47;;;15.50;97.50;;;;;;5028331;28;20425;-60
2022/08/13 03:05:37;;;;;;;0.40;0.40;;;15.50;97.60;;;;;;5034932;28;20429;-61
2022/08/13 03:08:27;;;;;;;0.40;0.40;;;15.40;97.70;;;;;;5021159;28;20431;-61
2022/08/13 03:11:11;;;;;;;0.40;0.40;;;15.30;97.80;;;;;;5033623;28;20826;-61
2022/08/13 03:13:54;;;;;;;0.40;0.30;;;15.30;98.00;;;;;;5011468;28;20507;-61
2022/08/13 03:16:24;;;;;;;0.33;0.33;;;15.30;98.10;;;;;;5032859;28;20917;-61
2022/08/13 03:18:54;;;;;;;0.90;0.47;;;15.20;98.10;;;;;;5018904;28;21124;-61
2022/08/13 03:21:38;;;;;;;0.38;0.38;;;15.30;98.10;;;;;;5027039;28;20435;-61
2022/08/13 03:24:17;;;;;;;0.35;0.35;;;15.20;98.10;;;;;;5027788;28;20430;-61
2022/08/13 03:26:58;;;;;;;0.40;0.40;;;15.20;98.20;;;;;;5020567;28;20427;-61
2022/08/13 03:29:28;;;;;;;0.30;0.30;;;15.20;98.40;;;;;;5036643;28;20456;-61
2022/08/13 03:32:17;;;;;;;0.60;0.50;;;15.20;98.50;;;;;;5026319;28;20452;-61
2022/08/13 03:34:56;;;;;;;0.40;0.40;;;15.20;98.60;;;;;;5031304;28;20433;-61
2022/08/13 03:37:23;;;;;;;0.32;0.32;;;15.20;98.70;;;;;;5041151;28;20429;-62
2022/08/13 03:39:54;;;;;;;0.40;0.40;;;15.10;98.70;;;;;;5044662;28;20811;-62
2022/08/13 03:42:24;;;;;;;0.47;0.47;;;15.00;98.80;;;;;;5025634;28;20524;-61
2022/08/13 03:45:11;;;;;;;0.32;0.32;;;14.90;99.00;;;;;;5022320;28;20423;-61
2022/08/13 03:47:41;;;;;;;0.50;0.50;;;14.80;99.30;;;;;;5026397;28;20943;-61
2022/08/13 03:50:12;;;;;;;0.50;0.50;;;14.70;99.40;;;;;;5016310;28;20439;-61
2022/08/13 03:52:42;;;;;;;0.50;0.50;;;14.60;99.70;;;;;;5029078;28;20493;-61
2022/08/13 03:55:12;;;;;;;0.40;0.40;;;14.60;99.90;;;;;;5043414;28;20438;-61
2022/08/13 03:57:41;;;;;;;0.40;0.40;;;14.50;99.90;;;;;;5042572;28;20443;-62
2022/08/13 04:00:36;;;;;;;0.38;0.38;;;14.50;99.90;;;;;;5027944;28;20425;-61
2022/08/13 04:03:28;;;;;;;0.50;0.50;;;14.30;99.90;;;;;;5019379;28;20517;-61
2022/08/13 04:05:59;;;;;;;0.30;0.30;;;14.20;99.90;;;;;;5024199;28;20503;-61
2022/08/13 04:08:34;;;;;;;0.40;0.40;;;14.00;99.90;;;;;;5032767;28;20443;-61
2022/08/13 04:11:09;;;;;;;0.40;0.40;;;13.90;99.90;;;;;;5013268;28;20440;-61
2022/08/13 04:13:37;;;;;;;0.50;0.50;;;13.80;99.90;;;;;;5034488;28;20436;-61
2022/08/13 04:16:25;;;;;;;0.50;0.50;;;13.70;99.90;;;;;;5043143;28;20425;-61
2022/08/13 04:19:00;;;;;;;0.30;0.30;;;13.60;99.90;;;;;;5017458;28;20807;-62
2022/08/13 04:21:31;;;;;;;0.30;0.30;;;13.60;99.90;;;;;;5030821;28;20428;-62
2022/08/13 04:24:02;;;;;;;0.40;0.40;;;13.60;99.90;;;;;;5032531;28;20502;-62
2022/08/13 04:26:31;;;;;;;0.80;0.50;;;13.60;99.90;;;;;;5015873;28;20427;-62
2022/08/13 04:29:04;;;;;;;0.30;0.30;;;13.60;99.90;;;;;;5033542;28;20508;-62
2022/08/13 04:31:33;;;;;;;0.50;0.50;;;13.60;99.90;;;;;;5037172;28;20426;-62
2022/08/13 04:34:19;;;;;;;0.80;0.40;;;13.60;99.90;;;;;;5029972;28;21065;-62
2022/08/13 04:37:08;;;;;;;0.40;0.40;;;13.70;99.90;;;;;;5035684;28;20431;-62
2022/08/13 04:39:46;;;;;;;0.47;0.47;;;13.80;99.90;;;;;;5028190;28;20434;-62
2022/08/13 04:42:55;;;;;;;0.50;0.50;;;13.80;99.90;;;;;;5030826;28;20417;-62
2022/08/13 04:45:23;;;;;;;0.50;0.50;;;14.00;99.90;;;;;;5026168;28;20452;-62
2022/08/13 04:47:53;;;;;;;0.40;0.40;;;14.10;99.90;;;;;;5034035;28;20428;-62
2022/08/13 04:50:21;;;;;;;0.30;0.30;;;14.20;99.90;;;;;;5023255;28;20442;-62
2022/08/13 04:52:50;;;;;;;0.60;0.60;;;14.30;99.90;;;;;;5031600;28;20517;-62
2022/08/13 04:55:17;;;;;;;0.40;0.40;;;14.40;99.90;;;;;;5018140;28;20999;-62
2022/08/13 04:57:46;;;;;;;0.40;0.40;;;14.50;99.90;;;;;;5026858;28;20429;-62
2022/08/13 05:00:31;;;;;;;0.40;0.40;;;14.60;99.90;;;;;;5028005;28;20459;-62
2022/08/13 05:03:29;;;;;;;0.50;0.50;;;14.80;99.90;;;;;;5012756;28;20440;-62
2022/08/13 05:06:19;;;;;;;0.30;0.30;;;14.90;99.90;;;;;;5022828;28;20889;-62
2022/08/13 05:08:49;;;;;;;0.43;0.43;;;15.10;99.90;;;;;;5018005;28;20442;-62
2022/08/13 05:11:21;;;;;;;0.60;0.60;;;15.20;99.90;;;;;;5025783;28;20439;-62
2022/08/13 05:13:54;;;;;;;0.52;0.52;;;15.40;99.90;;;;;;5012846;28;20426;-60
2022/08/13 05:16:22;;;;;;;0.40;0.40;;;15.50;99.90;;;;;;5019726;28;20531;-60
2022/08/13 05:18:55;;;;;;;0.50;0.50;;;15.60;99.90;;;;;;5014587;28;20424;-60
2022/08/13 05:21:25;;;;;;;0.40;0.40;;;15.80;99.90;;;;;;5013068;28;20431;-60
2022/08/13 05:24:12;;;;;;;0.43;0.43;;;15.90;99.90;;;;;;5019808;28;20427;-60
2022/08/13 05:26:58;;;;;;;0.30;0.30;;;16.10;99.90;;;;;;5029743;28;20423;-60
2022/08/13 05:29:37;;;;;;;0.40;0.40;;;16.40;99.90;;;;;;5033915;28;20471;-60
2022/08/13 05:32:30;;;;;;;0.40;0.40;;;16.50;99.90;;;;;;5035387;28;20434;-61
2022/08/13 05:35:11;;;;;;;0.50;0.50;;;16.80;99.90;;;;;;5033027;28;20975;-61
2022/08/13 05:37:40;;;;;;;0.50;0.50;;;17.00;99.90;;;;;;5036020;28;20904;-61
2022/08/13 05:40:27;;;;;;;0.40;0.40;;;17.20;99.90;;;;;;5029375;28;20853;-60
2022/08/13 05:43:09;;;;;;;0.52;0.52;;;17.40;99.90;;;;;;5023610;28;20449;-61
2022/08/13 05:45:38;;;;;;;0.60;0.60;;;17.60;99.90;;;;;;5034118;28;20509;-60
2022/08/13 05:48:18;;;;;;;0.68;0.47;;;17.70;99.60;;;;;;5022933;28;20508;-60
2022/08/13 05:50:46;;;;;;;0.47;0.47;;;17.90;99.20;;;;;;5029580;28;20515;-61
2022/08/13 05:53:17;;;;;;;0.77;0.70;;;18.40;99.00;;;;;;5030000;28;20450;-61
2022/08/13 05:55:47;;;;;;;0.75;0.40;;;19.30;98.40;;;;;;5014293;28;20442;-61
2022/08/13 05:58:34;;;;;;;0.32;0.32;;;20.10;97.00;;;;;;5022451;28;20430;-62
2022/08/13 06:03:47;;;;;;;0.38;0.38;;;21.60;95.30;;;;;;5019546;28;20432;-61
2022/08/13 06:06:34;;;;;;;0.30;0.30;;;22.20;94.50;;;;;;5019585;28;20426;-62
2022/08/13 06:09:04;;;;;;;0.47;0.47;;;22.90;93.80;;;;;;5045331;28;20432;-61
2022/08/13 06:11:40;;;;;;;0.30;0.30;;;23.50;93.40;;;;;;5022443;28;20435;-61
2022/08/13 06:14:31;;;;;;;0.40;0.40;;;24.20;92.90;;;;;;5024679;28;20746;-62
2022/08/13 06:17:02;;;;;;;0.40;0.40;;;24.90;92.10;;;;;;5027835;28;20522;-61
2022/08/13 06:19:32;;;;;;;0.50;0.50;;;25.50;91.20;;;;;;5019591;28;20822;-62
2022/08/13 06:22:04;;;;;;;0.60;0.60;;;25.70;90.90;;;;;;5017458;28;20450;-62
2022/08/13 06:24:34;;;;;;;0.40;0.40;;;25.70;90.30;;;;;;5044027;28;20900;-61
2022/08/13 06:27:18;;;;;;;0.30;0.30;;;25.40;90.30;;;;;;5028413;28;20608;-62
2022/08/13 06:29:47;;;;;;;0.43;0.40;;;25.40;90.40;;;;;;5015551;28;20514;-61
2022/08/13 06:32:20;;;;;;;0.40;0.40;;;25.70;90.30;;;;;;5024654;28;20438;-61
2022/08/13 06:35:08;;;;;;;0.40;0.40;;;26.20;90.00;;;;;;5023894;28;20426;-62
2022/08/13 06:37:41;;;;;;;0.30;0.30;;;26.60;88.90;;;;;;5025760;28;20449;-62
2022/08/13 06:40:20;;;;;;;0.35;0.35;;;26.90;88.20;;;;;;5018358;28;20443;-62
2022/08/13 06:43:04;;;;;;;0.30;0.30;;;27.00;87.10;;;;;;5020040;28;20435;-62
2022/08/13 06:45:32;;;;;;;0.43;0.43;;;27.20;87.00;;;;;;5022149;28;20489;-62
2022/08/13 06:48:01;;;;;;;0.50;0.50;;;27.20;86.10;;;;;;5032658;28;20864;-61
2022/08/13 06:50:34;;;;;;;0.30;0.30;;;27.40;86.50;;;;;;5022285;28;20513;-61
2022/08/13 06:53:07;;;;;;;0.40;0.40;;;27.60;86.40;;;;;;5019923;28;20469;-61
2022/08/13 06:55:54;;;;;;;0.40;0.40;;;27.80;85.20;;;;;;5018795;28;20431;-61
2022/08/13 06:58:43;;;;;;;0.57;0.57;;;28.20;85.50;;;;;;5022975;28;20434;-61
2022/08/13 07:01:15;;;;;;;0.32;0.32;;;28.40;84.00;;;;;;5021223;28;20446;-61
2022/08/13 07:03:43;;;;;;;0.30;0.30;;;28.50;85.60;;;;;;5022529;28;20920;-58
2022/08/13 07:06:27;;;;;;;0.40;0.40;;;28.80;84.10;;;;;;5014908;28;20442;-61
2022/08/13 07:08:56;;;;;;;0.50;0.50;;;29.10;83.00;;;;;;5023802;28;21014;-61
2022/08/13 07:11:26;;;;;;;0.50;0.50;;;29.20;82.20;;;;;;5018814;28;20431;-62
2022/08/13 07:14:06;;;;;;;0.50;0.50;;;28.70;82.00;;;;;;5015787;28;20443;-62
2022/08/13 07:16:42;;;;;;;0.40;0.40;;;28.90;83.20;;;;;;5014706;28;20440;-61
2022/08/13 07:19:12;;;;;;;0.35;0.35;;;29.10;81.50;;;;;;5026610;28;20428;-61
2022/08/13 07:21:43;;;;;;;0.40;0.40;;;29.00;82.10;;;;;;5020389;28;20437;-61
2022/08/13 07:24:13;;;;;;;0.40;0.40;;;29.00;82.90;;;;;;5021835;28;20431;-62
2022/08/13 07:27:07;;;;;;;0.30;0.30;;;29.20;81.50;;;;;;5012224;28;21042;-62
2022/08/13 07:29:37;;;;;;;0.32;0.32;;;29.50;81.30;;;;;;5035884;28;20907;-62
2022/08/13 07:32:17;;;;;;;0.40;0.40;;;29.60;81.20;;;;;;5031165;28;20519;-61
2022/08/13 07:34:48;;;;;;;0.50;0.50;;;29.60;80.90;;;;;;5030858;28;20433;-62
2022/08/13 07:37:20;;;;;;;0.40;0.40;;;29.70;80.80;;;;;;5024763;28;20435;-62
2022/08/13 07:39:50;;;;;;;0.40;0.40;;;29.90;80.30;;;;;;5049176;28;20909;-63
2022/08/13 07:42:20;;;;;;;0.40;0.40;;;29.90;80.30;;;;;;5034487;28;21002;-63
2022/08/13 07:45:00;;;;;;;0.40;0.40;;;29.90;80.80;;;;;;5026552;28;20440;-63
2022/08/13 07:47:50;;;;;;;0.30;0.30;;;30.00;79.80;;;;;;5025920;28;20952;-62
2022/08/13 07:50:38;;;;;;;0.43;0.43;;;30.00;79.80;;;;;;5035109;28;20527;-64
2022/08/13 07:53:12;;;;;;;0.40;0.40;;;30.10;79.80;;;;;;5029013;28;20428;-64
2022/08/13 07:55:42;;;;;;;0.40;0.40;;;30.30;79.40;;;;;;5026960;28;20466;-64
2022/08/13 07:58:30;;;;;;;0.30;0.30;;;30.40;78.70;;;;;;5022926;28;20836;-63
2022/08/13 08:00:59;;;;;;;0.40;0.40;;;30.50;79.30;;;;;;5027447;28;20432;-63
2022/08/13 08:03:36;;;;;;;0.40;0.40;;;30.30;78.30;;;;;;5021773;28;20435;-64
2022/08/13 08:06:20;;;;;;;0.30;0.30;;;30.10;78.80;;;;;;5015601;28;20436;-64
2022/08/13 08:08:57;;;;;;;0.40;0.40;;;30.00;79.00;;;;;;5016515;28;20513;-64
2022/08/13 08:14:21;;;;;;;0.40;0.40;;;29.90;79.00;;;;;;5020253;28;20496;-64
2022/08/13 08:17:01;;;;;;;0.50;0.43;;;29.90;79.80;;;;;;5019009;28;20444;-61
2022/08/13 08:19:48;;;;;;;0.30;0.30;;;30.10;78.20;;;;;;5033333;28;20427;-68
2022/08/13 08:22:35;;;;;;;0.40;0.40;;;30.00;77.60;;;;;;5020984;28;20416;-70
2022/08/13 08:25:03;;;;;;;0.20;0.20;;;29.80;78.40;;;;;;5025164;28;20436;-69
2022/08/13 08:27:49;;;;;;;0.30;0.30;;;30.30;78.50;;;;;;5013447;28;22156;-69
2022/08/13 08:30:39;;;;;;;0.43;0.43;;;29.70;78.60;;;;;;5012448;28;20545;-69
2022/08/13 08:33:25;;;;;;;0.40;0.40;;;30.20;80.10;;;;;;5028936;28;20467;-70
2022/08/13 08:36:11;;;;;;;0.50;0.50;;;30.70;78.50;;;;;;5030358;28;20431;-70
2022/08/13 08:44:32;;;;;;;0.40;0.40;;;30.60;77.60;;;;;;5017429;28;20441;-70
2022/08/13 08:47:00;;;;;;;0.40;0.40;;;30.10;79.30;;;;;;5021657;28;20442;-68
2022/08/13 08:49:35;;;;;;;0.40;0.40;;;30.20;78.20;;;;;;5018677;28;20966;-69
2022/08/13 08:52:12;;;;;;;0.50;0.50;;;30.00;79.00;;;;;;5020232;28;20952;-71
2022/08/13 08:54:45;;;;;;;0.30;0.30;;;29.80;79.20;;;;;;5022367;28;20428;-70
2022/08/13 08:57:18;;;;;;;0.33;0.33;;;30.00;78.90;;;;;;5023468;28;21151;-70
2022/08/13 08:59:48;;;;;;;0.43;0.43;;;30.40;79.00;;;;;;5038052;28;20470;-70
2022/08/13 09:02:24;;;;;;;0.45;0.45;;;30.90;78.30;;;;;;5020237;28;20471;-66
2022/08/13 09:04:54;;;;;;;0.43;0.43;;;30.90;77.70;;;;;;5021185;28;21071;-64
2022/08/13 09:07:30;;;;;;;0.50;0.50;;;31.30;77.40;;;;;;5031664;28;20945;-67
2022/08/13 09:09:58;;;;;;;0.40;0.40;;;31.10;76.70;;;;;;5019547;28;21141;-65
2022/08/13 09:12:27;;;;;;;0.45;0.45;;;30.90;77.30;;;;;;5021377;28;20430;-64
2022/08/13 09:14:57;;;;;;;0.50;0.50;;;30.50;78.00;;;;;;5027081;28;20436;-65
2022/08/13 09:17:27;;;;;;;0.30;0.30;;;30.70;78.50;;;;;;5028272;28;20430;-65
2022/08/13 09:20:12;;;;;;;0.50;0.50;;;30.80;77.80;;;;;;5023277;28;20525;-65
2022/08/13 09:22:44;;;;;;;0.50;0.50;;;30.70;78.00;;;;;;5017547;28;20437;-65
2022/08/13 09:25:23;;;;;;;1.50;0.45;;;31.00;77.60;;;;;;5021723;28;20474;-64
2022/08/13 09:27:52;;;;;;;0.60;0.60;;;31.00;76.90;;;;;;5028668;28;20437;-65
2022/08/13 09:30:28;;;;;;;1.20;0.60;;;30.50;78.10;;;;;;5019180;28;20443;-64
2022/08/13 09:33:00;;;;;;;0.50;0.50;;;30.40;77.80;;;;;;5021626;28;20446;-64
2022/08/13 09:35:31;;;;;;;0.40;0.40;;;30.40;77.80;;;;;;5043263;28;20436;-64
2022/08/13 09:38:06;;;;;;;0.50;0.50;;;30.20;77.70;;;;;;5019694;28;20449;-65
2022/08/13 09:40:47;;;;;;;0.40;0.40;;;29.90;78.60;;;;;;5018278;28;20455;-65
2022/08/13 09:43:39;;;;;;;0.50;0.50;;;30.40;78.40;;;;;;5029844;28;21240;-64
2022/08/13 09:46:15;;;;;;;0.40;0.40;;;31.00;77.30;;;;;;5019500;28;20436;-66
2022/08/13 09:48:50;;;;;;;0.40;0.40;;;31.20;76.80;;;;;;5015010;28;20911;-65
2022/08/13 09:51:19;;;;;;;0.40;0.40;;;31.00;76.80;;;;;;5016648;28;20468;-64
2022/08/13 09:54:09;;;;;;;0.30;0.30;;;31.10;77.30;;;;;;5028266;28;20465;-66
2022/08/13 09:56:38;;;;;;;0.40;0.40;;;31.60;77.60;;;;;;5023229;28;20466;-65
2022/08/13 09:59:08;;;;;;;0.40;0.40;;;31.80;75.10;;;;;;5033522;28;20436;-65
2022/08/13 10:01:56;;;;;;;0.50;0.50;;;31.20;75.70;;;;;;5019484;28;20437;-66
2022/08/13 10:04:26;;;;;;;0.40;0.40;;;31.30;76.50;;;;;;5025402;28;20431;-64
2022/08/13 10:06:58;;;;;;;0.45;0.45;;;31.50;75.30;;;;;;5012355;28;20485;-65
2022/08/13 10:09:27;;;;;;;0.57;0.57;;;31.80;74.40;;;;;;5018297;28;20476;-66
2022/08/13 10:11:59;;;;;;;0.40;0.40;;;31.60;74.80;;;;;;5033174;28;20900;-67
2022/08/13 10:14:49;;;;;;;0.40;0.40;;;31.70;75.00;;;;;;5013065;28;20450;-65
2022/08/13 10:17:25;;;;;;;0.60;0.50;;;31.40;75.20;;;;;;5027064;28;20450;-65
2022/08/13 10:20:33;;;;;;;0.40;0.40;;;31.10;75.90;;;;;;5036081;28;20441;-64
2022/08/13 10:23:03;;;;;;;0.50;0.50;;;30.40;76.40;;;;;;5030362;28;20457;-65
2022/08/13 10:25:30;;;;;;;0.40;0.40;;;31.00;77.20;;;;;;5022715;28;20428;-64
2022/08/13 10:28:22;;;;;;;0.50;0.50;;;30.80;76.50;;;;;;5027521;28;20417;-64
2022/08/13 10:31:03;;;;;;;0.45;0.45;;;30.20;75.90;;;;;;5015266;28;20425;-64
2022/08/13 10:33:53;;;;;;;0.30;0.30;;;31.20;75.00;;;;;;5018561;28;20426;-65
2022/08/13 10:36:25;;;;;;;0.50;0.50;;;31.90;74.80;;;;;;5016826;28;20430;-64
2022/08/13 10:38:59;;;;;;;0.35;0.35;;;31.80;72.80;;;;;;5015251;28;20937;-63
2022/08/13 10:41:30;;;;;;;0.30;0.30;;;31.50;72.40;;;;;;5021197;28;20431;-64
2022/08/13 10:44:02;;;;;;;0.40;0.40;;;31.50;73.80;;;;;;5022316;28;21211;-64
2022/08/13 10:46:31;;;;;;;0.38;0.38;;;31.20;73.90;;;;;;5020433;28;20427;-64
2022/08/13 10:49:04;;;;;;;0.40;0.40;;;31.10;72.00;;;;;;5020286;28;20436;-65
2022/08/13 10:51:31;;;;;;;0.40;0.40;;;31.50;73.40;;;;;;5019581;28;20427;-65
2022/08/13 10:54:02;;;;;;;0.40;0.40;;;31.30;73.30;;;;;;5025028;28;20439;-64
2022/08/13 10:56:31;;;;;;;0.50;0.50;;;31.00;73.20;;;;;;5021688;28;20467;-64
2022/08/13 10:59:00;;;;;;;0.40;0.40;;;31.10;74.60;;;;;;5019092;28;20443;-64
2022/08/13 11:01:29;;;;;;;0.45;0.45;;;31.00;73.90;;;;;;5022040;28;20439;-66
2022/08/13 11:04:02;;;;;;;0.47;0.47;;;31.20;72.80;;;;;;5015892;28;20940;-64
2022/08/13 11:06:36;;;;;;;0.40;0.40;;;31.50;71.80;;;;;;5019838;28;20776;-64
2022/08/13 11:09:07;;;;;;;0.40;0.40;;;32.00;72.50;;;;;;5028338;28;20430;-63
2022/08/13 11:11:54;;;;;;;0.47;0.47;;;32.40;72.70;;;;;;5022293;28;20967;-64
2022/08/13 11:14:26;;;;;;;0.40;0.40;;;32.70;71.60;;;;;;5041793;28;20433;-63
2022/08/13 11:17:04;;;;;;;0.40;0.40;;;33.30;71.40;;;;;;5024184;28;20971;-63
2022/08/13 11:19:40;;;;;;;0.43;0.43;;;33.60;70.60;;;;;;5017839;28;20528;-63
2022/08/13 11:22:19;;;;;;;0.50;0.50;;;33.70;69.30;;;;;;5023639;28;20910;-63
2022/08/13 11:24:58;;;;;;;0.40;0.40;;;33.10;71.00;;;;;;5013363;28;20556;-63
2022/08/13 11:27:46;;;;;;;0.50;0.50;;;33.20;71.20;;;;;;5018184;28;20455;-62
2022/08/13 11:30:19;;;;;;;0.50;0.50;;;34.10;70.70;;;;;;5030635;28;20505;-62
2022/08/13 11:33:04;;;;;;;0.50;0.50;;;34.80;67.80;;;;;;5022325;28;20535;-64
2022/08/13 11:35:40;;;;;;;0.60;0.60;;;34.60;67.60;;;;;;5020437;28;20442;-63
2022/08/13 11:38:16;;;;;;;0.50;0.50;;;34.10;67.70;;;;;;5023951;28;20829;-63
2022/08/13 11:40:49;;;;;;;0.40;0.40;;;33.20;69.60;;;;;;5023486;28;20442;-63
2022/08/13 11:43:20;;;;;;;0.45;0.45;;;33.80;69.80;;;;;;5026214;28;20864;-63
2022/08/13 11:45:49;;;;;;;0.50;0.50;;;33.70;70.00;;;;;;5035947;28;20469;-63
2022/08/13 11:48:17;;;;;;;0.50;0.50;;;33.90;68.50;;;;;;5023330;28;20435;-63
2022/08/13 11:51:02;;;;;;;0.47;0.47;;;33.10;69.20;;;;;;5017601;28;20656;-64
2022/08/13 11:53:31;;;;;;;0.45;0.45;;;33.20;70.00;;;;;;5024107;28;20908;-63
2022/08/13 11:56:21;;;;;;;0.40;0.40;;;32.90;68.90;;;;;;5018732;28;20421;-63
2022/08/13 11:58:51;;;;;;;0.40;0.40;;;32.70;70.00;;;;;;5023821;28;20445;-63
2022/08/13 12:01:25;;;;;;;0.73;0.50;;;32.30;71.00;;;;;;5022985;28;20431;-63
2022/08/13 12:04:10;;;;;;;0.50;0.50;;;31.80;71.90;;;;;;5026681;28;20429;-63
2022/08/13 12:06:44;;;;;;;0.38;0.38;;;31.40;72.40;;;;;;5025682;28;20432;-63
2022/08/13 12:09:17;;;;;;;0.40;0.40;;;31.20;73.00;;;;;;5021510;28;20436;-64
2022/08/13 12:12:05;;;;;;;0.40;0.40;;;31.70;73.00;;;;;;5022261;28;20460;-64
2022/08/13 12:14:37;;;;;;;0.60;0.60;;;32.00;72.20;;;;;;5015961;28;20451;-64
2022/08/13 12:17:04;;;;;;;0.50;0.50;;;32.40;72.00;;;;;;5017861;28;20480;-64
2022/08/13 12:19:31;;;;;;;0.50;0.50;;;32.90;71.00;;;;;;5024330;28;20822;-64
2022/08/13 12:21:59;;;;;;;0.40;0.40;;;33.40;71.20;;;;;;5033929;28;20987;-63
2022/08/13 12:24:27;;;;;;;0.40;0.40;;;34.00;69.90;;;;;;5038132;28;20441;-63
2022/08/13 12:27:02;;;;;;;0.40;0.40;;;33.40;70.40;;;;;;5025395;28;20436;-63
2022/08/13 12:29:31;;;;;;;0.57;0.57;;;32.90;70.70;;;;;;5018670;28;20460;-63
2022/08/13 12:32:14;;;;;;;0.50;0.50;;;32.20;71.90;;;;;;5026411;28;20432;-63
2022/08/13 12:34:45;;;;;;;0.45;0.45;;;32.00;73.00;;;;;;5017204;28;20427;-63
2022/08/13 12:37:18;;;;;;;0.50;0.50;;;32.80;71.60;;;;;;5021566;28;21016;-66
2022/08/13 12:39:56;;;;;;;0.50;0.50;;;33.40;72.00;;;;;;5014255;28;20438;-64
2022/08/13 12:42:25;;;;;;;0.40;0.40;;;32.80;70.80;;;;;;5029711;28;20439;-66
2022/08/13 12:44:55;;;;;;;0.50;0.50;;;32.90;71.40;;;;;;5025900;28;20431;-64
2022/08/13 12:47:35;;;;;;;0.50;0.50;;;32.90;70.50;;;;;;5025462;28;20434;-64
2022/08/13 12:50:03;;;;;;;0.40;0.40;;;32.80;72.00;;;;;;5035377;28;20555;-64
2022/08/13 12:52:33;;;;;;;0.50;0.50;;;32.60;71.80;;;;;;5022919;28;20470;-64
2022/08/13 12:55:01;;;;;;;0.50;0.50;;;32.60;71.40;;;;;;5031090;28;20575;-64
2022/08/13 12:57:41;;;;;;;0.50;0.50;;;32.40;70.80;;;;;;5030927;28;20545;-64
2022/08/13 13:00:30;;;;;;;0.65;0.65;;;32.90;71.00;;;;;;5010374;28;20896;-65
2022/08/13 13:02:58;;;;;;;0.50;0.50;;;32.70;70.70;;;;;;5018692;28;20447;-64
2022/08/13 13:05:28;;;;;;;0.55;0.55;;;32.80;70.40;;;;;;5029178;28;20448;-65
2022/08/13 13:08:16;;;;;;;1.30;1.30;;;33.40;70.50;;;;;;5022251;28;21135;-65
2022/08/13 13:11:02;;;;;;;1.05;1.05;;;33.70;70.70;;;;;;5026962;28;20432;-65
2022/08/13 13:13:45;;;;;;;0.75;0.75;;;33.50;70.00;;;;;;5024637;28;20438;-65
2022/08/13 13:16:31;;;;;;;0.50;0.50;;;34.20;69.50;;;;;;5014932;28;20947;-64
2022/08/13 13:19:05;;;;;;;0.47;0.47;;;34.20;69.00;;;;;;5018086;28;20520;-64
2022/08/13 13:21:40;;;;;;;0.40;0.40;;;34.20;67.80;;;;;;5010707;28;20446;-65
2022/08/13 13:24:08;;;;;;;0.60;0.60;;;34.60;67.70;;;;;;5023991;28;20550;-65
2022/08/13 13:26:52;;;;;;;0.55;0.55;;;35.10;66.40;;;;;;5021048;28;20518;-65
2022/08/13 13:29:33;;;;;;;0.40;0.40;;;35.70;68.30;;;;;;5021188;28;20427;-65
2022/08/13 13:32:08;;;;;;;0.80;0.80;;;36.40;66.30;;;;;;5014810;28;20429;-66
2022/08/13 13:34:55;;;;;;;0.88;0.88;;;36.40;65.70;;;;;;5014350;28;20429;-64
2022/08/13 13:37:26;;;;;;;0.97;0.97;;;35.70;66.50;;;;;;5037663;28;20911;-63
2022/08/13 13:40:13;;;;;;;1.00;1.00;;;34.20;66.60;;;;;;5019447;28;20907;-66
2022/08/13 13:42:41;;;;;;;1.10;1.10;;;34.00;67.90;;;;;;5026037;28;20429;-64
2022/08/13 13:45:29;;;;;;;1.10;1.10;;;33.50;67.60;;;;;;5026687;28;20917;-65
2022/08/13 13:48:18;;;;;;;1.00;1.00;;;34.00;67.20;;;;;;5016620;28;20754;-66
2022/08/13 13:50:45;;;;;;;2.50;2.40;;;34.40;67.30;;;;;;5031821;28;20435;-67
2022/08/13 13:53:17;;;;;;;2.47;2.37;;;34.10;67.20;;;;;;5020052;28;20460;-64
2022/08/13 13:56:00;;;;;;;2.67;2.58;;;34.00;67.30;;;;;;5015838;28;21047;-63